createdAt,value
2022-10-17T00:00:58.753Z,64.90
2022-10-17T00:03:25.806Z,64.84
2022-10-17T00:05:52.927Z,64.79
2022-10-17T00:08:21.047Z,64.83
2022-10-17T00:10:59.078Z,65.01
2022-10-17T00:13:26.824Z,65.02
2022-10-17T00:15:54.362Z,64.99
2022-10-17T00:18:21.718Z,65.23
2022-10-17T00:20:48.744Z,65.30
2022-10-17T00:23:15.920Z,65.56
2022-10-17T00:25:42.972Z,65.97
2022-10-17T00:28:13.558Z,66.22
2022-10-17T00:30:41.227Z,66.52
2022-10-17T00:33:08.397Z,66.60
2022-10-17T00:35:35.637Z,66.53
2022-10-17T00:38:02.741Z,66.64
2022-10-17T00:40:29.784Z,66.93
2022-10-17T00:42:56.858Z,66.96
2022-10-17T00:45:30.029Z,66.89
2022-10-17T00:48:18.872Z,67.07
2022-10-17T00:50:50.077Z,67.20
2022-10-17T00:53:18.672Z,66.98
2022-10-17T00:55:51.706Z,67.17
2022-10-17T00:58:20.040Z,67.27
2022-10-17T01:00:48.647Z,67.57
2022-10-17T01:03:16.451Z,67.73
2022-10-17T01:05:43.741Z,67.65
2022-10-17T01:08:11.713Z,67.60
2022-10-17T01:11:22.345Z,67.54
2022-10-17T01:14:15.900Z,67.70
2022-10-17T01:16:55.308Z,67.35
2022-10-17T01:20:16.488Z,67.83
2022-10-17T01:23:20.971Z,67.96
2022-10-17T01:26:19.749Z,68.37
2022-10-17T01:29:14.107Z,68.43
2022-10-17T01:31:53.108Z,68.58
2022-10-17T01:34:36.242Z,68.77
2022-10-17T01:37:18.547Z,68.78
2022-10-17T01:40:06.250Z,68.69
2022-10-17T01:42:56.319Z,69.01
2022-10-17T01:45:58.919Z,69.20
2022-10-17T01:48:34.671Z,68.75
2022-10-17T01:51:26.819Z,68.77
2022-10-17T01:54:04.216Z,68.85
2022-10-17T01:56:34.033Z,69.08
2022-10-17T01:59:24.958Z,68.96
2022-10-17T02:01:55.797Z,68.83
2022-10-17T02:04:24.087Z,68.88
2022-10-17T02:06:51.120Z,68.79
2022-10-17T02:09:25.327Z,68.57
2022-10-17T02:12:24.440Z,68.55
2022-10-17T02:15:37.930Z,68.78
2022-10-17T02:18:23.435Z,68.68
2022-10-17T02:21:03.267Z,68.45
2022-10-17T02:23:42.588Z,68.39
2022-10-17T02:26:18.411Z,68.14
2022-10-17T02:29:11.492Z,68.19
2022-10-17T02:31:46.198Z,68.34
2022-10-17T02:34:26.356Z,68.47
2022-10-17T02:36:59.020Z,68.57
2022-10-17T02:39:29.631Z,68.70
2022-10-17T02:42:02.992Z,68.97
2022-10-17T02:44:32.640Z,69.17
2022-10-17T02:47:23.556Z,68.76
2022-10-17T02:49:56.824Z,68.92
2022-10-17T02:52:47.445Z,68.48
2022-10-17T02:55:22.530Z,68.20
2022-10-17T02:57:56.391Z,68.35
2022-10-17T03:00:25.228Z,68.46
2022-10-17T03:02:54.207Z,68.83
2022-10-17T03:05:29.317Z,68.81
2022-10-17T03:07:57.027Z,68.98
2022-10-17T03:10:25.304Z,68.90
2022-10-17T03:12:52.724Z,68.95
2022-10-17T03:15:20.421Z,68.94
2022-10-17T03:17:47.673Z,68.70
2022-10-17T03:20:14.929Z,69.26
2022-10-17T03:22:42.239Z,69.15
2022-10-17T03:25:10.658Z,69.14
2022-10-17T03:27:37.901Z,68.89
2022-10-17T03:30:06.016Z,68.81
2022-10-17T03:32:35.067Z,69.01
2022-10-17T03:35:02.753Z,69.04
2022-10-17T03:37:30.168Z,69.14
2022-10-17T03:39:57.434Z,69.43
2022-10-17T03:42:25.577Z,69.31
2022-10-17T03:44:52.620Z,69.56
2022-10-17T03:47:19.972Z,69.13
2022-10-17T03:49:47.437Z,68.90
2022-10-17T03:52:16.558Z,68.95
2022-10-17T03:54:43.716Z,68.70
2022-10-17T03:57:10.825Z,68.66
2022-10-17T03:59:38.357Z,68.84
2022-10-17T04:02:11.814Z,68.82
2022-10-17T04:04:38.861Z,69.14
2022-10-17T04:07:05.952Z,69.10
2022-10-17T04:09:36.272Z,68.83
2022-10-17T04:12:09.341Z,69.01
2022-10-17T04:14:38.159Z,68.88
2022-10-17T04:17:05.389Z,68.99
2022-10-17T04:19:33.764Z,68.83
2022-10-17T04:22:03.137Z,68.52
2022-10-17T04:24:33.391Z,68.89
2022-10-17T04:27:11.965Z,69.25
2022-10-17T04:29:44.351Z,68.93
2022-10-17T04:32:22.244Z,68.80
2022-10-17T04:34:55.145Z,68.65
2022-10-17T04:37:23.390Z,69.09
2022-10-17T04:39:53.107Z,68.82
2022-10-17T04:42:20.697Z,69.65
2022-10-17T04:44:48.946Z,69.36
2022-10-17T04:47:18.099Z,69.53
2022-10-17T04:49:45.202Z,69.53
2022-10-17T04:52:14.158Z,69.60
2022-10-17T04:54:43.848Z,69.63
2022-10-17T04:57:13.516Z,69.58
2022-10-17T04:59:42.495Z,69.66
2022-10-17T05:02:35.664Z,69.51
2022-10-17T05:05:04.218Z,69.61
2022-10-17T05:07:31.427Z,69.54
2022-10-17T05:10:02.352Z,69.63
2022-10-17T05:12:30.792Z,69.24
2022-10-17T05:14:58.688Z,69.41
2022-10-17T05:17:27.780Z,69.65
2022-10-17T05:19:54.810Z,69.26
2022-10-17T05:22:22.699Z,69.24
2022-10-17T05:24:49.758Z,69.14
2022-10-17T05:27:16.824Z,69.13
2022-10-17T05:29:43.850Z,68.94
2022-10-17T05:32:20.825Z,69.03
2022-10-17T05:34:48.208Z,68.99
2022-10-17T05:37:15.626Z,68.90
2022-10-17T05:39:50.675Z,69.00
2022-10-17T05:42:19.248Z,68.97
2022-10-17T05:44:47.279Z,69.01
2022-10-17T05:47:16.277Z,68.99
2022-10-17T05:49:48.531Z,68.96
2022-10-17T05:52:20.699Z,68.75
2022-10-17T05:55:13.837Z,68.75
2022-10-17T05:57:41.001Z,68.77
2022-10-17T06:00:14.124Z,68.88
2022-10-17T06:02:49.337Z,68.86
2022-10-17T06:05:20.787Z,68.57
2022-10-17T06:07:50.168Z,68.43
2022-10-17T06:10:18.640Z,68.93
2022-10-17T06:12:46.537Z,68.79
2022-10-17T06:15:15.018Z,68.60
2022-10-17T06:17:45.467Z,68.25
2022-10-17T06:20:12.550Z,68.25
2022-10-17T06:22:39.693Z,67.81
2022-10-17T06:25:12.924Z,67.51
2022-10-17T06:27:40.010Z,67.50
2022-10-17T06:30:08.041Z,67.49
2022-10-17T06:32:35.103Z,67.27
2022-10-17T06:35:02.128Z,66.64
2022-10-17T06:37:36.643Z,66.88
2022-10-17T06:40:10.493Z,66.65
2022-10-17T06:42:41.687Z,66.35
2022-10-17T06:45:24.290Z,66.06
2022-10-17T06:48:08.964Z,65.87
2022-10-17T06:50:43.947Z,65.43
2022-10-17T06:53:17.824Z,65.46
2022-10-17T06:56:04.737Z,65.25
2022-10-17T06:58:46.417Z,64.69
2022-10-17T07:01:32.415Z,65.00
2022-10-17T07:04:01.054Z,65.17
2022-10-17T07:06:29.890Z,65.05
2022-10-17T07:09:02.671Z,64.62
2022-10-17T07:11:29.879Z,64.12
2022-10-17T07:13:56.930Z,63.99
2022-10-17T07:16:24.158Z,63.54
2022-10-17T07:18:59.400Z,62.90
2022-10-17T07:21:26.667Z,62.62
2022-10-17T07:23:53.925Z,61.54
2022-10-17T07:26:21.895Z,62.06
2022-10-17T07:28:55.298Z,61.00
2022-10-17T07:31:37.477Z,60.65
2022-10-17T07:34:05.338Z,60.93
2022-10-17T07:36:33.206Z,60.50
2022-10-17T07:39:03.063Z,59.96
2022-10-17T07:41:31.475Z,59.40
2022-10-17T07:44:00.390Z,58.86
2022-10-17T07:46:33.387Z,58.61
2022-10-17T07:49:00.577Z,57.79
2022-10-17T07:51:32.662Z,57.20
2022-10-17T07:54:01.835Z,56.85
2022-10-17T07:56:29.771Z,56.67
2022-10-17T08:01:25.946Z,55.82
2022-10-17T08:03:52.976Z,55.39
2022-10-17T08:06:20.117Z,55.30
2022-10-17T08:08:47.218Z,54.50
2022-10-17T08:11:20.339Z,54.34
2022-10-17T08:13:54.388Z,53.99
2022-10-17T08:16:21.591Z,53.33
2022-10-17T08:18:48.857Z,53.07
2022-10-17T08:21:15.994Z,53.39
2022-10-17T08:23:43.076Z,53.07
2022-10-17T08:26:13.415Z,52.18
2022-10-17T08:28:41.211Z,52.30
2022-10-17T08:31:12.233Z,51.78
2022-10-17T08:33:40.026Z,52.07
2022-10-17T08:36:08.765Z,52.12
2022-10-17T08:38:40.374Z,51.73
2022-10-17T08:41:48.814Z,51.35
2022-10-17T08:44:31.171Z,51.17
2022-10-17T08:47:03.573Z,51.30
2022-10-17T08:49:48.527Z,50.87
2022-10-17T08:52:32.863Z,50.92
2022-10-17T08:54:59.956Z,50.61
2022-10-17T08:57:28.878Z,49.99
2022-10-17T08:59:57.193Z,50.04
2022-10-17T09:03:12.661Z,49.93
2022-10-17T09:06:03.318Z,49.85
2022-10-17T09:08:51.311Z,50.38
2022-10-17T09:11:50.445Z,50.59
2022-10-17T09:14:43.144Z,50.25
2022-10-17T09:17:30.491Z,50.41
2022-10-17T09:20:00.599Z,50.10
2022-10-17T09:22:38.136Z,50.03
2022-10-17T09:25:14.147Z,50.33
2022-10-17T09:27:49.483Z,49.88
2022-10-17T09:30:49.514Z,50.02
2022-10-17T09:33:42.177Z,49.91
2022-10-17T09:36:23.793Z,50.72
2022-10-17T09:39:03.261Z,50.56
2022-10-17T09:41:47.201Z,50.32
2022-10-17T09:44:42.269Z,50.19
2022-10-17T09:47:39.418Z,49.88
2022-10-17T09:50:22.309Z,49.93
2022-10-17T09:52:50.800Z,49.70
2022-10-17T09:55:41.817Z,49.99
2022-10-17T09:58:11.020Z,49.78
2022-10-17T10:00:47.684Z,49.74
2022-10-17T10:03:24.734Z,49.65
2022-10-17T10:06:14.654Z,49.47
2022-10-17T10:09:00.221Z,49.44
2022-10-17T10:11:50.468Z,49.59
2022-10-17T10:14:35.279Z,49.28
2022-10-17T10:17:38.689Z,49.38
2022-10-17T10:20:30.908Z,49.32
2022-10-17T10:23:24.671Z,49.22
2022-10-17T10:26:12.470Z,49.45
2022-10-17T10:28:40.252Z,48.97
2022-10-17T10:31:10.044Z,48.41
2022-10-17T10:33:47.019Z,48.35
2022-10-17T10:36:16.676Z,48.23
2022-10-17T10:38:54.779Z,48.08
2022-10-17T10:41:22.263Z,47.71
2022-10-17T10:43:52.406Z,47.56
2022-10-17T10:46:27.592Z,47.04
2022-10-17T10:48:59.864Z,47.27
2022-10-17T10:51:41.787Z,47.15
2022-10-17T10:54:32.839Z,46.81
2022-10-17T10:57:06.524Z,46.30
2022-10-17T10:59:45.801Z,45.60
2022-10-17T11:02:30.409Z,44.02
2022-10-17T11:05:10.874Z,41.71
2022-10-17T11:08:05.251Z,39.38
2022-10-17T11:10:56.634Z,37.14
2022-10-17T11:13:29.117Z,35.33
2022-10-17T11:16:02.088Z,33.63
2022-10-17T11:18:47.855Z,32.11
2022-10-17T11:21:47.334Z,31.05
2022-10-17T11:24:28.612Z,29.90
2022-10-17T11:27:01.061Z,28.61
2022-10-17T11:29:34.567Z,27.42
2022-10-17T11:32:15.945Z,26.86
2022-10-17T11:34:50.356Z,26.98
2022-10-17T11:37:41.037Z,26.17
2022-10-17T11:40:31.171Z,25.72
2022-10-17T11:43:10.504Z,25.48
2022-10-17T11:45:45.653Z,25.45
2022-10-17T11:48:25.202Z,24.38
2022-10-17T11:54:19.439Z,24.45
2022-10-17T11:56:59.138Z,24.01
2022-10-17T12:00:01.606Z,24.03
2022-10-17T12:02:42.289Z,24.60
2022-10-17T12:05:49.284Z,25.34
2022-10-17T12:08:58.187Z,24.98
2022-10-17T12:11:42.333Z,24.34
2022-10-17T12:14:47.702Z,23.92
2022-10-17T12:17:39.180Z,23.97
2022-10-17T12:23:12.222Z,23.49
2022-10-17T12:25:59.620Z,23.61
2022-10-17T12:28:45.606Z,23.47
2022-10-17T12:31:29.758Z,23.29
2022-10-17T12:34:03.390Z,23.58
2022-10-17T12:36:30.659Z,23.92
2022-10-17T12:39:03.828Z,24.01
2022-10-17T12:41:40.262Z,23.67
2022-10-17T12:44:14.000Z,23.52
2022-10-17T12:46:52.437Z,22.69
2022-10-17T12:49:39.275Z,22.22
2022-10-17T12:52:18.577Z,22.40
2022-10-17T12:55:17.390Z,22.15
2022-10-17T12:57:56.777Z,21.92
2022-10-17T13:01:18.997Z,21.84
2022-10-17T13:03:47.011Z,21.84
2022-10-17T13:06:23.056Z,21.57
2022-10-17T13:09:03.834Z,21.29
2022-10-17T13:11:34.898Z,21.14
2022-10-17T13:14:10.971Z,20.96
2022-10-17T13:16:53.129Z,20.47
2022-10-17T13:19:25.695Z,20.78
2022-10-17T13:21:59.907Z,20.97
2022-10-17T13:24:40.296Z,21.32
2022-10-17T13:27:28.483Z,21.43
2022-10-17T13:29:59.039Z,21.32
2022-10-17T13:32:37.728Z,21.68
2022-10-17T13:35:07.341Z,21.75
2022-10-17T13:37:40.253Z,21.55
2022-10-17T13:40:40.339Z,21.84
2022-10-17T13:43:04.221Z,22.59
2022-10-17T13:45:35.014Z,22.67
2022-10-17T13:48:06.803Z,23.51
2022-10-17T13:50:44.440Z,23.60
2022-10-17T13:53:39.931Z,23.89
2022-10-17T13:56:30.155Z,23.92
2022-10-17T13:59:06.868Z,23.88
2022-10-17T14:01:34.395Z,23.91
2022-10-17T14:04:08.967Z,23.85
2022-10-17T14:06:49.270Z,24.31
2022-10-17T14:09:27.163Z,24.56
2022-10-17T14:12:16.609Z,25.50
2022-10-17T14:15:09.890Z,26.51
2022-10-17T14:17:38.897Z,26.87
2022-10-17T14:20:40.868Z,27.41
2022-10-17T14:25:47.579Z,29.04
2022-10-17T14:28:16.948Z,29.40
2022-10-17T14:31:01.911Z,30.21
2022-10-17T14:33:31.799Z,30.78
2022-10-17T14:36:01.792Z,31.49
2022-10-17T14:38:30.333Z,32.25
2022-10-17T14:41:41.517Z,32.34
2022-10-17T14:44:06.654Z,32.79
2022-10-17T14:46:36.402Z,32.82
2022-10-17T14:49:19.428Z,32.70
2022-10-17T14:52:13.407Z,32.92
2022-10-17T14:54:44.571Z,32.80
2022-10-17T14:57:23.417Z,33.70
2022-10-17T14:59:55.202Z,34.18
2022-10-17T15:02:29.049Z,35.00
2022-10-17T15:04:56.371Z,35.92
2022-10-17T15:07:24.106Z,36.39
2022-10-17T15:09:53.278Z,36.76
2022-10-17T15:12:25.530Z,37.49
2022-10-17T15:14:53.771Z,37.68
2022-10-17T15:17:26.729Z,38.02
2022-10-17T15:19:54.900Z,38.25
2022-10-17T15:22:22.724Z,38.58
2022-10-17T15:24:50.308Z,38.73
2022-10-17T15:27:23.762Z,39.09
2022-10-17T15:29:52.905Z,39.54
2022-10-17T15:32:20.270Z,39.83
2022-10-17T15:34:47.382Z,40.43
2022-10-17T15:37:23.220Z,41.04
2022-10-17T15:39:55.104Z,41.67
2022-10-17T15:42:30.208Z,42.44
2022-10-17T15:44:58.401Z,43.09
2022-10-17T15:47:34.838Z,43.61
2022-10-17T15:50:02.574Z,44.13
2022-10-17T15:52:29.753Z,44.24
2022-10-17T15:54:59.498Z,44.66
2022-10-17T15:57:34.432Z,45.07
2022-10-17T16:00:01.757Z,45.63
2022-10-17T16:02:28.992Z,46.18
2022-10-17T16:04:56.177Z,46.45
2022-10-17T16:07:23.251Z,47.24
2022-10-17T16:09:50.361Z,47.53
2022-10-17T16:12:31.092Z,47.05
2022-10-17T16:14:58.222Z,47.03
2022-10-17T16:17:25.354Z,47.83
2022-10-17T16:19:52.455Z,48.31
2022-10-17T16:22:36.720Z,48.99
2022-10-17T16:25:24.114Z,49.35
2022-10-17T16:27:56.970Z,49.74
2022-10-17T16:30:27.098Z,49.94
2022-10-17T16:32:55.543Z,50.12
2022-10-17T16:35:33.279Z,50.10
2022-10-17T16:38:05.590Z,50.55
2022-10-17T16:40:32.768Z,50.57
2022-10-17T16:42:59.970Z,50.86
2022-10-17T16:45:27.348Z,50.91
2022-10-17T16:47:55.154Z,51.08
2022-10-17T16:50:22.716Z,50.81
2022-10-17T16:52:50.335Z,51.02
2022-10-17T16:55:20.596Z,50.91
2022-10-17T16:57:49.169Z,51.21
2022-10-17T17:00:17.482Z,51.54
2022-10-17T17:02:47.567Z,51.44
2022-10-17T17:05:15.105Z,51.69
2022-10-17T17:07:42.277Z,51.83
2022-10-17T17:10:09.971Z,51.85
2022-10-17T17:12:37.362Z,52.16
2022-10-17T17:15:05.211Z,52.43
2022-10-17T17:17:49.265Z,52.79
2022-10-17T17:20:17.467Z,52.94
2022-10-17T17:22:47.281Z,53.05
2022-10-17T17:25:15.658Z,53.32
2022-10-17T17:27:42.801Z,53.41
2022-10-17T17:30:10.670Z,53.56
2022-10-17T17:32:37.694Z,53.70
2022-10-17T17:35:05.169Z,54.07
2022-10-17T17:37:36.641Z,53.76
2022-10-17T17:40:05.947Z,53.81
2022-10-17T17:42:32.990Z,53.82
2022-10-17T17:45:00.088Z,54.01
2022-10-17T17:47:29.745Z,54.10
2022-10-17T17:49:57.320Z,54.39
2022-10-17T17:52:24.430Z,54.63
2022-10-17T17:54:51.433Z,54.86
2022-10-17T17:57:20.014Z,55.15
2022-10-17T17:59:48.905Z,55.20
2022-10-17T18:02:16.126Z,55.58
2022-10-17T18:04:43.255Z,55.67
2022-10-17T18:07:10.326Z,56.04
2022-10-17T18:09:37.346Z,56.18
2022-10-17T18:12:04.753Z,56.34
2022-10-17T18:14:31.963Z,56.18
2022-10-17T18:16:59.382Z,56.38
2022-10-17T18:19:28.258Z,56.76
2022-10-17T18:21:55.271Z,56.75
2022-10-17T18:24:22.878Z,57.20
2022-10-17T18:26:51.146Z,57.32
2022-10-17T18:29:18.205Z,57.50
2022-10-17T18:31:45.474Z,57.51
2022-10-17T18:34:12.551Z,57.72
2022-10-17T18:36:39.722Z,57.68
2022-10-17T18:39:06.783Z,57.66
2022-10-17T18:41:34.350Z,57.99
2022-10-17T18:44:04.982Z,58.12
2022-10-17T18:46:36.677Z,58.10
2022-10-17T18:49:03.879Z,57.99
2022-10-17T18:51:31.254Z,58.17
2022-10-17T18:53:58.825Z,58.32
2022-10-17T18:56:26.971Z,58.13
2022-10-17T18:58:54.851Z,58.09
2022-10-17T19:01:27.035Z,58.33
2022-10-17T19:03:57.287Z,58.33
2022-10-17T19:06:32.043Z,58.53
2022-10-17T19:09:06.081Z,58.46
2022-10-17T19:11:34.711Z,58.53
2022-10-17T19:14:04.490Z,58.61
2022-10-17T19:16:35.507Z,58.62
2022-10-17T19:19:07.466Z,58.71
2022-10-17T19:21:35.049Z,58.62
2022-10-17T19:24:06.053Z,58.53
2022-10-17T19:26:36.137Z,58.71
2022-10-17T19:29:05.061Z,58.62
2022-10-17T19:31:34.191Z,58.64
2022-10-17T19:34:01.824Z,58.88
2022-10-17T19:36:33.407Z,59.32
2022-10-17T19:39:08.800Z,59.33
2022-10-17T19:41:38.968Z,59.22
2022-10-17T19:44:06.586Z,59.38
2022-10-17T19:46:34.197Z,59.69
2022-10-17T19:49:02.339Z,59.78
2022-10-17T19:51:30.203Z,59.77
2022-10-17T19:54:02.602Z,59.79
2022-10-17T19:56:32.990Z,59.81
2022-10-17T19:59:00.091Z,60.13
2022-10-17T20:01:31.573Z,60.19
2022-10-17T20:03:58.706Z,60.15
2022-10-17T20:06:26.524Z,60.01
2022-10-17T20:08:53.997Z,59.92
2022-10-17T20:11:26.290Z,59.87
2022-10-17T20:13:54.756Z,60.13
2022-10-17T20:16:25.637Z,60.07
2022-10-17T20:18:56.178Z,59.96
2022-10-17T20:21:27.397Z,60.06
2022-10-17T20:23:57.234Z,60.36
2022-10-17T20:26:43.614Z,60.49
2022-10-17T20:29:21.433Z,60.45
2022-10-17T20:31:49.004Z,60.80
2022-10-17T20:34:18.432Z,60.82
2022-10-17T20:36:46.013Z,60.78
2022-10-17T20:39:15.037Z,60.83
2022-10-17T20:41:43.114Z,61.06
2022-10-17T20:44:11.376Z,61.09
2022-10-17T20:46:48.434Z,60.93
2022-10-17T20:49:24.806Z,60.99
2022-10-17T20:51:51.905Z,60.98
2022-10-17T20:54:19.062Z,61.02
2022-10-17T20:56:46.080Z,60.81
2022-10-17T20:59:16.483Z,60.81
2022-10-17T21:01:45.236Z,61.11
2022-10-17T21:04:44.200Z,61.18
2022-10-17T21:07:00.790Z,60.50
2022-10-17T21:09:28.082Z,60.62
2022-10-17T21:11:56.008Z,60.61
2022-10-17T21:14:24.828Z,60.58
2022-10-17T21:16:52.553Z,60.79
2022-10-17T21:19:21.733Z,60.50
2022-10-17T21:21:48.883Z,61.21
2022-10-17T21:24:19.178Z,61.33
2022-10-17T21:26:50.073Z,61.48
2022-10-17T21:29:17.126Z,61.44
2022-10-17T21:31:45.352Z,61.48
2022-10-17T21:34:20.852Z,61.24
2022-10-17T21:36:48.542Z,61.29
2022-10-17T21:39:16.578Z,61.19
2022-10-17T21:41:45.305Z,61.32
2022-10-17T21:44:18.658Z,61.57
2022-10-17T21:46:47.196Z,61.65
2022-10-17T21:49:18.175Z,61.47
2022-10-17T21:51:47.523Z,61.84
2022-10-17T21:54:16.518Z,61.98
2022-10-17T21:56:43.774Z,61.94
2022-10-17T21:59:11.444Z,61.68
2022-10-17T22:01:42.862Z,61.92
2022-10-17T22:04:16.757Z,61.99
2022-10-17T22:06:51.233Z,62.09
2022-10-17T22:09:24.674Z,62.15
2022-10-17T22:11:56.603Z,62.08
2022-10-17T22:14:26.686Z,62.36
2022-10-17T22:16:54.364Z,62.50
2022-10-17T22:19:25.379Z,62.62
2022-10-17T22:21:53.187Z,62.80
2022-10-17T22:26:53.538Z,63.27
2022-10-17T22:29:21.003Z,63.06
2022-10-17T22:31:48.216Z,63.02
2022-10-17T22:34:16.878Z,62.89
2022-10-17T22:36:44.295Z,63.11
2022-10-17T22:39:11.650Z,63.26
2022-10-17T22:41:38.874Z,63.25
2022-10-17T22:44:06.623Z,63.38
2022-10-17T22:46:33.786Z,63.59
2022-10-17T22:49:00.915Z,63.62
2022-10-17T22:51:28.793Z,63.58
2022-10-17T22:53:55.892Z,63.65
2022-10-17T22:56:23.670Z,63.46
2022-10-17T22:58:51.430Z,63.25
2022-10-17T23:01:22.589Z,63.56
2022-10-17T23:03:50.802Z,63.60
2022-10-17T23:06:18.363Z,63.92
2022-10-17T23:08:45.636Z,63.84
2022-10-17T23:11:12.963Z,63.71
2022-10-17T23:13:40.991Z,63.87
2022-10-17T23:16:09.219Z,64.45
2022-10-17T23:18:38.139Z,64.45
2022-10-17T23:21:06.193Z,64.50
2022-10-17T23:23:33.336Z,64.68
2022-10-17T23:26:09.822Z,64.69
2022-10-17T23:28:37.452Z,64.82
2022-10-17T23:31:17.502Z,64.90
2022-10-17T23:33:46.554Z,64.90
2022-10-17T23:36:16.808Z,64.66
2022-10-17T23:38:45.906Z,64.56
2022-10-17T23:41:13.547Z,64.84
2022-10-17T23:43:41.043Z,64.50
2022-10-17T23:46:08.677Z,64.72
2022-10-17T23:48:36.143Z,64.70
2022-10-17T23:51:04.458Z,64.83
2022-10-17T23:53:31.673Z,65.06
2022-10-17T23:55:58.746Z,65.13
2022-10-17T23:58:25.820Z,65.16
